createdAt,value
2022-10-09T00:01:05.631Z,59.94
2022-10-09T00:02:13.218Z,61.26
2022-10-09T00:03:17.225Z,62.47
2022-10-09T00:04:18.900Z,64.27
2022-10-09T00:05:23.607Z,65.41
2022-10-09T00:06:30.414Z,65.28
2022-10-09T00:07:32.098Z,64.42
2022-10-09T00:08:35.845Z,63.27
2022-10-09T00:09:37.525Z,62.28
2022-10-09T00:10:43.118Z,61.37
2022-10-09T00:11:44.835Z,60.81
2022-10-09T00:12:46.954Z,60.29
2022-10-09T00:13:49.837Z,59.80
2022-10-09T00:14:51.523Z,59.04
2022-10-09T00:15:53.247Z,58.32
2022-10-09T00:16:55.300Z,58.14
2022-10-09T00:17:56.958Z,58.77
2022-10-09T00:18:58.695Z,59.68
2022-10-09T00:20:00.325Z,61.04
2022-10-09T00:21:02.907Z,61.73
2022-10-09T00:22:04.784Z,62.99
2022-10-09T00:23:07.132Z,65.09
2022-10-09T00:24:09.261Z,65.84
2022-10-09T00:25:10.956Z,65.36
2022-10-09T00:26:12.638Z,64.32
2022-10-09T00:27:14.427Z,63.34
2022-10-09T00:28:16.099Z,62.52
2022-10-09T00:29:17.742Z,61.43
2022-10-09T00:30:19.359Z,60.61
2022-10-09T00:31:21.870Z,59.98
2022-10-09T00:32:23.786Z,59.57
2022-10-09T00:33:25.459Z,58.83
2022-10-09T00:34:27.244Z,57.80
2022-10-09T00:35:28.971Z,57.66
2022-10-09T00:36:31.130Z,58.41
2022-10-09T00:37:32.846Z,59.56
2022-10-09T00:38:35.133Z,60.73
2022-10-09T00:39:36.776Z,62.04
2022-10-09T00:40:39.419Z,63.40
2022-10-09T00:41:41.169Z,64.62
2022-10-09T00:42:45.585Z,65.06
2022-10-09T00:43:51.357Z,64.40
2022-10-09T00:45:00.230Z,63.33
2022-10-09T00:46:02.691Z,62.18
2022-10-09T00:47:04.587Z,61.48
2022-10-09T00:48:10.570Z,60.72
2022-10-09T00:49:25.513Z,60.05
2022-10-09T00:50:40.328Z,59.32
2022-10-09T00:51:46.024Z,58.14
2022-10-09T00:52:54.230Z,58.06
2022-10-09T00:53:56.906Z,58.84
2022-10-09T00:55:02.625Z,60.00
2022-10-09T00:56:04.691Z,60.65
2022-10-09T00:57:08.084Z,61.71
2022-10-09T00:58:12.975Z,63.67
2022-10-09T00:59:16.555Z,65.40
2022-10-09T01:00:18.733Z,65.79
2022-10-09T01:01:20.467Z,65.13
2022-10-09T01:02:22.244Z,64.05
2022-10-09T01:03:24.066Z,62.92
2022-10-09T01:04:25.758Z,62.03
2022-10-09T01:05:58.433Z,61.12
2022-10-09T01:07:38.705Z,60.26
2022-10-09T01:09:05.143Z,59.26
2022-10-09T01:10:16.598Z,58.14
2022-10-09T01:11:35.487Z,58.20
2022-10-09T01:12:45.934Z,59.23
2022-10-09T01:14:01.522Z,60.72
2022-10-09T01:15:16.305Z,62.53
2022-10-09T01:16:30.430Z,64.33
2022-10-09T01:17:44.048Z,65.31
2022-10-09T01:18:53.775Z,64.88
2022-10-09T01:20:26.455Z,63.94
2022-10-09T01:21:40.866Z,62.40
2022-10-09T01:23:03.538Z,61.35
2022-10-09T01:24:44.607Z,60.48
2022-10-09T01:25:46.106Z,59.76
2022-10-09T01:26:55.518Z,59.20
2022-10-09T01:27:59.143Z,58.14
2022-10-09T01:29:07.438Z,58.22
2022-10-09T01:30:12.564Z,58.95
2022-10-09T01:31:17.028Z,60.35
2022-10-09T01:32:25.754Z,61.50
2022-10-09T01:33:31.411Z,63.14
2022-10-09T01:34:34.048Z,65.16
2022-10-09T01:35:36.597Z,65.73
2022-10-09T01:36:41.152Z,65.23
2022-10-09T01:37:46.389Z,64.49
2022-10-09T01:38:48.842Z,63.57
2022-10-09T01:39:52.144Z,62.79
2022-10-09T01:40:53.959Z,61.95
2022-10-09T01:41:57.714Z,61.43
2022-10-09T01:42:59.544Z,60.94
2022-10-09T01:44:01.670Z,60.45
2022-10-09T01:45:03.857Z,59.84
2022-10-09T01:46:23.762Z,59.44
2022-10-09T01:47:26.407Z,58.43
2022-10-09T01:48:28.845Z,58.37
2022-10-09T01:49:49.040Z,58.90
2022-10-09T01:51:04.578Z,60.62
2022-10-09T01:52:29.898Z,61.44
2022-10-09T01:53:32.559Z,63.34
2022-10-09T01:54:58.771Z,65.39
2022-10-09T01:56:09.254Z,65.92
2022-10-09T01:57:18.616Z,65.21
2022-10-09T01:58:41.851Z,63.87
2022-10-09T01:59:47.241Z,62.84
2022-10-09T02:01:07.160Z,61.80
2022-10-09T02:02:10.691Z,60.76
2022-10-09T02:03:16.650Z,60.44
2022-10-09T02:04:20.263Z,60.09
2022-10-09T02:05:32.851Z,59.34
2022-10-09T02:06:38.609Z,58.21
2022-10-09T02:07:40.703Z,58.01
2022-10-09T02:08:46.786Z,58.76
2022-10-09T02:09:49.421Z,59.92
2022-10-09T02:10:56.554Z,61.20
2022-10-09T02:12:06.640Z,62.26
2022-10-09T02:13:08.631Z,64.05
2022-10-09T02:14:10.501Z,65.17
2022-10-09T02:15:13.366Z,65.77
2022-10-09T02:16:25.388Z,65.10
2022-10-09T02:17:33.575Z,63.93
2022-10-09T02:18:43.487Z,62.83
2022-10-09T02:19:55.209Z,61.88
2022-10-09T02:21:08.818Z,61.11
2022-10-09T02:22:18.947Z,60.33
2022-10-09T02:23:24.409Z,59.66
2022-10-09T02:24:27.946Z,58.93
2022-10-09T02:25:29.989Z,57.95
2022-10-09T02:26:32.781Z,57.89
2022-10-09T02:27:36.141Z,58.79
2022-10-09T02:28:42.560Z,59.94
2022-10-09T02:29:48.763Z,61.17
2022-10-09T02:31:13.489Z,62.60
2022-10-09T02:32:16.446Z,64.63
2022-10-09T02:33:18.537Z,65.31
2022-10-09T02:34:20.866Z,64.86
2022-10-09T02:35:22.571Z,63.90
2022-10-09T02:36:25.901Z,62.95
2022-10-09T02:37:27.585Z,62.11
2022-10-09T02:38:29.414Z,61.21
2022-10-09T02:39:31.342Z,60.43
2022-10-09T02:40:32.998Z,59.87
2022-10-09T02:41:35.703Z,59.21
2022-10-09T02:42:37.307Z,58.24
2022-10-09T02:43:38.933Z,57.66
2022-10-09T02:44:40.682Z,58.34
2022-10-09T02:45:43.159Z,59.36
2022-10-09T02:46:44.832Z,60.46
2022-10-09T02:47:46.479Z,61.65
2022-10-09T02:48:48.198Z,62.85
2022-10-09T02:49:49.860Z,64.45
2022-10-09T02:50:51.518Z,65.40
2022-10-09T02:51:53.633Z,65.12
2022-10-09T02:52:55.258Z,64.25
2022-10-09T02:53:57.018Z,63.12
2022-10-09T02:54:58.665Z,62.16
2022-10-09T02:56:00.852Z,61.17
2022-10-09T02:57:02.631Z,60.47
2022-10-09T02:58:04.346Z,59.78
2022-10-09T02:59:06.866Z,59.18
2022-10-09T03:00:09.169Z,58.28
2022-10-09T03:01:10.807Z,57.81
2022-10-09T03:02:12.479Z,58.48
2022-10-09T03:03:14.710Z,59.22
2022-10-09T03:04:16.394Z,60.15
2022-10-09T03:05:18.053Z,61.71
2022-10-09T03:06:24.130Z,63.34
2022-10-09T03:07:26.004Z,64.99
2022-10-09T03:08:27.650Z,65.55
2022-10-09T03:09:33.403Z,65.07
2022-10-09T03:10:37.842Z,63.92
2022-10-09T03:11:39.495Z,62.93
2022-10-09T03:12:41.125Z,61.89
2022-10-09T03:13:43.234Z,61.11
2022-10-09T03:14:44.825Z,60.43
2022-10-09T03:15:47.015Z,59.70
2022-10-09T03:16:48.622Z,58.89
2022-10-09T03:17:50.350Z,57.94
2022-10-09T03:18:53.666Z,57.97
2022-10-09T03:19:55.742Z,58.84
2022-10-09T03:20:57.669Z,59.72
2022-10-09T03:21:59.537Z,60.76
2022-10-09T03:23:01.183Z,62.11
2022-10-09T03:24:02.862Z,63.21
2022-10-09T03:25:04.802Z,64.82
2022-10-09T03:26:13.818Z,65.33
2022-10-09T03:27:15.422Z,64.72
2022-10-09T03:28:17.272Z,63.88
2022-10-09T03:29:18.948Z,62.75
2022-10-09T03:30:20.578Z,61.95
2022-10-09T03:32:47.783Z,60.31
2022-10-09T03:33:49.614Z,59.70
2022-10-09T03:34:51.665Z,59.46
2022-10-09T03:35:53.565Z,58.64
2022-10-09T03:36:55.262Z,57.98
2022-10-09T03:37:56.959Z,58.01
2022-10-09T03:38:58.706Z,59.22
2022-10-09T03:40:00.456Z,59.98
2022-10-09T03:41:04.416Z,60.97
2022-10-09T03:42:08.043Z,62.08
2022-10-09T03:43:09.812Z,64.07
2022-10-09T03:44:11.436Z,65.76
2022-10-09T03:45:13.162Z,66.46
2022-10-09T03:46:15.133Z,66.10
2022-10-09T03:47:17.350Z,65.24
2022-10-09T03:48:18.957Z,64.03
2022-10-09T03:49:20.823Z,63.28
2022-10-09T03:50:22.678Z,62.25
2022-10-09T03:51:24.388Z,61.55
2022-10-09T03:52:26.036Z,61.12
2022-10-09T03:53:28.227Z,60.38
2022-10-09T03:54:29.851Z,60.03
2022-10-09T03:55:31.659Z,59.49
2022-10-09T03:56:33.322Z,58.52
2022-10-09T03:57:35.459Z,57.93
2022-10-09T03:58:37.470Z,58.28
2022-10-09T03:59:39.084Z,58.95
2022-10-09T04:00:40.922Z,59.86
2022-10-09T04:01:42.697Z,61.25
2022-10-09T04:02:44.397Z,63.74
2022-10-09T04:03:46.350Z,64.92
2022-10-09T04:04:47.947Z,65.30
2022-10-09T04:05:50.023Z,64.84
2022-10-09T04:06:51.635Z,64.03
2022-10-09T04:07:53.298Z,63.10
2022-10-09T04:08:54.961Z,62.30
2022-10-09T04:09:56.592Z,61.29
2022-10-09T04:10:59.747Z,60.61
2022-10-09T04:12:01.427Z,60.45
2022-10-09T04:13:03.073Z,60.06
2022-10-09T04:14:04.748Z,59.62
2022-10-09T04:15:07.211Z,59.07
2022-10-09T04:16:12.687Z,58.10
2022-10-09T04:17:14.494Z,57.97
2022-10-09T04:18:16.154Z,58.84
2022-10-09T04:19:17.934Z,59.97
2022-10-09T04:20:20.875Z,60.90
2022-10-09T04:21:22.518Z,62.23
2022-10-09T04:22:24.207Z,63.82
2022-10-09T04:23:28.114Z,65.21
2022-10-09T04:24:29.777Z,65.41
2022-10-09T04:25:31.829Z,64.79
2022-10-09T04:26:33.830Z,63.99
2022-10-09T04:27:35.458Z,62.89
2022-10-09T04:28:37.203Z,62.03
2022-10-09T04:29:39.451Z,61.38
2022-10-09T04:30:41.397Z,60.75
2022-10-09T04:31:43.182Z,60.21
2022-10-09T04:32:44.831Z,59.65
2022-10-09T04:33:46.470Z,58.79
2022-10-09T04:34:48.198Z,58.03
2022-10-09T04:35:52.449Z,58.44
2022-10-09T04:36:54.410Z,59.17
2022-10-09T04:37:56.062Z,60.45
2022-10-09T04:38:57.702Z,61.38
2022-10-09T04:39:59.300Z,62.74
2022-10-09T04:41:04.180Z,64.40
2022-10-09T04:42:06.281Z,65.53
2022-10-09T04:43:07.944Z,65.42
2022-10-09T04:44:09.979Z,64.63
2022-10-09T04:45:11.630Z,63.71
2022-10-09T04:46:15.266Z,62.70
2022-10-09T04:47:17.623Z,61.85
2022-10-09T04:48:20.389Z,61.25
2022-10-09T04:49:22.017Z,60.64
2022-10-09T04:50:24.233Z,60.03
2022-10-09T04:51:34.458Z,59.53
2022-10-09T04:52:36.588Z,58.81
2022-10-09T04:53:39.066Z,57.97
2022-10-09T04:54:40.667Z,58.38
2022-10-09T04:55:43.861Z,58.88
2022-10-09T04:56:45.618Z,60.27
2022-10-09T04:57:47.379Z,61.42
2022-10-09T04:58:49.414Z,62.21
2022-10-09T04:59:51.075Z,63.99
2022-10-09T05:00:52.770Z,65.40
2022-10-09T05:01:54.496Z,65.71
2022-10-09T05:02:56.465Z,64.92
2022-10-09T05:03:58.468Z,64.21
2022-10-09T05:05:00.116Z,63.47
2022-10-09T05:06:07.182Z,62.53
2022-10-09T05:07:08.803Z,61.69
2022-10-09T05:08:10.458Z,60.66
2022-10-09T05:09:12.789Z,60.41
2022-10-09T05:10:14.783Z,60.32
2022-10-09T05:11:19.625Z,60.09
2022-10-09T05:12:21.260Z,59.62
2022-10-09T05:13:23.013Z,59.00
2022-10-09T05:14:24.913Z,58.16
2022-10-09T05:15:26.736Z,58.33
2022-10-09T05:16:29.361Z,59.24
2022-10-09T05:17:31.132Z,60.33
2022-10-09T05:18:33.734Z,61.55
2022-10-09T05:19:35.531Z,62.58
2022-10-09T05:20:41.323Z,64.56
2022-10-09T05:21:42.974Z,65.53
2022-10-09T05:22:45.815Z,65.45
2022-10-09T05:23:48.507Z,64.60
2022-10-09T05:24:50.136Z,63.68
2022-10-09T05:25:56.288Z,62.84
2022-10-09T05:26:58.193Z,61.92
2022-10-09T05:28:00.355Z,61.18
2022-10-09T05:29:02.010Z,60.56
2022-10-09T05:30:05.551Z,59.96
2022-10-09T05:31:09.090Z,59.46
2022-10-09T05:32:10.838Z,58.76
2022-10-09T05:33:12.682Z,58.18
2022-10-09T05:34:14.653Z,58.68
2022-10-09T05:35:16.677Z,59.59
2022-10-09T05:36:19.010Z,60.53
2022-10-09T05:37:20.833Z,61.83
2022-10-09T05:38:24.723Z,62.40
2022-10-09T05:39:26.689Z,64.40
2022-10-09T05:40:29.346Z,65.77
2022-10-09T05:41:31.050Z,65.75
2022-10-09T05:42:32.727Z,65.02
2022-10-09T05:43:37.770Z,63.87
2022-10-09T05:44:39.444Z,62.86
2022-10-09T05:45:41.191Z,61.88
2022-10-09T05:46:42.854Z,61.31
2022-10-09T05:47:46.114Z,60.54
2022-10-09T05:49:00.161Z,60.14
2022-10-09T05:50:02.456Z,59.64
2022-10-09T05:51:17.234Z,59.09
2022-10-09T05:52:18.859Z,58.12
2022-10-09T05:53:20.733Z,58.20
2022-10-09T05:54:22.345Z,58.97
2022-10-09T05:55:26.793Z,60.17
2022-10-09T05:56:33.888Z,61.51
2022-10-09T05:57:35.510Z,62.63
2022-10-09T05:58:37.380Z,64.34
2022-10-09T05:59:39.065Z,65.32
2022-10-09T06:00:40.749Z,65.35
2022-10-09T06:01:46.674Z,64.42
2022-10-09T06:02:48.761Z,63.68
2022-10-09T06:03:53.328Z,62.79
2022-10-09T06:04:55.285Z,61.87
2022-10-09T06:06:04.210Z,61.36
2022-10-09T06:07:05.915Z,60.57
2022-10-09T06:08:07.612Z,59.96
2022-10-09T06:09:11.057Z,59.57
2022-10-09T06:10:13.385Z,59.18
2022-10-09T06:11:18.584Z,58.03
2022-10-09T06:12:20.218Z,57.59
2022-10-09T06:13:21.951Z,58.33
2022-10-09T06:14:25.027Z,59.46
2022-10-09T06:15:26.653Z,60.57
2022-10-09T06:16:34.926Z,61.87
2022-10-09T06:17:36.558Z,62.54
2022-10-09T06:18:39.300Z,64.55
2022-10-09T06:19:40.974Z,65.46
2022-10-09T06:20:56.026Z,65.25
2022-10-09T06:21:57.685Z,64.19
2022-10-09T06:22:59.303Z,63.18
2022-10-09T06:24:03.636Z,62.19
2022-10-09T06:25:05.749Z,61.40
2022-10-09T06:26:10.571Z,60.65
2022-10-09T06:27:13.754Z,59.95
2022-10-09T06:28:15.447Z,59.64
2022-10-09T06:29:17.156Z,58.98
2022-10-09T06:30:18.829Z,57.94
2022-10-09T06:31:23.459Z,57.77
2022-10-09T06:32:25.151Z,58.45
2022-10-09T06:33:30.091Z,59.44
2022-10-09T06:34:31.768Z,60.55
2022-10-09T06:35:36.324Z,62.05
2022-10-09T06:36:38.083Z,62.68
2022-10-09T06:37:39.713Z,64.53
2022-10-09T06:38:42.353Z,65.64
2022-10-09T06:39:44.052Z,65.52
2022-10-09T06:40:45.684Z,64.82
2022-10-09T06:41:47.308Z,63.70
2022-10-09T06:43:00.201Z,62.53
2022-10-09T06:44:07.720Z,61.49
2022-10-09T06:45:09.653Z,60.58
2022-10-09T06:46:12.735Z,60.09
2022-10-09T06:47:14.469Z,59.68
2022-10-09T06:48:16.083Z,58.93
2022-10-09T06:49:17.695Z,57.88
2022-10-09T06:50:19.342Z,57.86
2022-10-09T06:51:23.298Z,58.61
2022-10-09T06:52:25.045Z,59.73
2022-10-09T06:53:26.800Z,61.12
2022-10-09T06:54:28.480Z,62.01
2022-10-09T06:55:30.581Z,63.57
2022-10-09T06:56:32.359Z,64.92
2022-10-09T06:57:34.127Z,65.46
2022-10-09T06:58:36.779Z,64.98
2022-10-09T06:59:38.436Z,63.90
2022-10-09T07:00:40.113Z,62.76
2022-10-09T07:01:41.982Z,62.01
2022-10-09T07:02:44.375Z,61.13
2022-10-09T07:03:48.787Z,60.55
2022-10-09T07:04:50.430Z,59.92
2022-10-09T07:05:52.358Z,59.36
2022-10-09T07:06:53.965Z,58.28
2022-10-09T07:07:55.587Z,57.80
2022-10-09T07:09:01.761Z,58.38
2022-10-09T07:10:03.932Z,59.51
2022-10-09T07:11:11.950Z,60.41
2022-10-09T07:12:13.681Z,61.63
2022-10-09T07:13:15.371Z,62.55
2022-10-09T07:14:17.375Z,64.13
2022-10-09T07:15:19.105Z,65.44
2022-10-09T07:16:23.949Z,65.47
2022-10-09T07:17:26.778Z,64.58
2022-10-09T07:18:28.555Z,63.07
2022-10-09T07:19:30.176Z,62.25
2022-10-09T07:20:32.010Z,61.30
2022-10-09T07:21:38.098Z,60.62
2022-10-09T07:22:39.963Z,59.75
2022-10-09T07:23:42.310Z,59.11
2022-10-09T07:24:44.029Z,58.05
2022-10-09T07:25:45.657Z,57.95
2022-10-09T07:26:47.833Z,58.71
2022-10-09T07:27:49.576Z,59.83
2022-10-09T07:28:52.135Z,60.90
2022-10-09T07:29:53.755Z,62.17
2022-10-09T07:30:56.686Z,63.50
2022-10-09T07:31:58.630Z,64.86
2022-10-09T07:33:00.304Z,64.67
2022-10-09T07:34:03.127Z,64.13
2022-10-09T07:35:05.901Z,62.89
2022-10-09T07:36:09.433Z,61.67
2022-10-09T07:37:11.042Z,61.07
2022-10-09T07:38:12.656Z,60.33
2022-10-09T07:39:15.021Z,59.67
2022-10-09T07:40:16.654Z,59.02
2022-10-09T07:41:18.718Z,58.09
2022-10-09T07:42:20.567Z,57.99
2022-10-09T07:43:22.507Z,58.76
2022-10-09T07:44:24.218Z,59.52
2022-10-09T07:45:26.205Z,60.58
2022-10-09T07:46:33.239Z,61.73
2022-10-09T07:47:35.779Z,62.97
2022-10-09T07:48:37.792Z,64.68
2022-10-09T07:49:39.426Z,65.42
2022-10-09T07:50:41.123Z,65.11
2022-10-09T07:51:42.794Z,64.21
2022-10-09T07:52:44.398Z,63.30
2022-10-09T07:53:47.303Z,61.98
2022-10-09T07:54:48.965Z,61.12
2022-10-09T07:55:50.680Z,60.40
2022-10-09T07:56:52.270Z,59.97
2022-10-09T07:57:53.879Z,59.30
2022-10-09T07:59:02.092Z,58.05
2022-10-09T08:00:04.524Z,57.67
2022-10-09T08:01:18.878Z,58.21
2022-10-09T08:02:21.724Z,59.32
2022-10-09T08:03:23.594Z,60.40
2022-10-09T08:04:25.382Z,61.29
2022-10-09T08:05:26.987Z,62.37
2022-10-09T08:06:29.821Z,63.75
2022-10-09T08:07:34.881Z,65.50
2022-10-09T08:08:36.864Z,65.83
2022-10-09T08:09:39.757Z,65.25
2022-10-09T08:10:41.370Z,64.15
2022-10-09T08:11:43.060Z,63.25
2022-10-09T08:12:44.680Z,62.08
2022-10-09T08:13:49.196Z,61.34
2022-10-09T08:14:51.146Z,60.54
2022-10-09T08:15:52.829Z,59.78
2022-10-09T08:16:54.541Z,58.85
2022-10-09T08:17:56.163Z,57.82
2022-10-09T08:18:59.947Z,57.64
2022-10-09T08:20:01.604Z,58.38
2022-10-09T08:21:07.278Z,59.37
2022-10-09T08:22:08.975Z,60.80
2022-10-09T08:23:10.684Z,61.77
2022-10-09T08:24:12.907Z,62.65
2022-10-09T08:25:14.625Z,64.05
2022-10-09T08:26:19.306Z,65.20
2022-10-09T08:27:20.922Z,65.17
2022-10-09T08:28:22.793Z,64.38
2022-10-09T08:29:24.429Z,63.38
2022-10-09T08:30:26.614Z,62.36
2022-10-09T08:31:29.371Z,60.92
2022-10-09T08:32:31.124Z,59.83
2022-10-09T08:33:32.838Z,59.62
2022-10-09T08:34:34.459Z,59.14
2022-10-09T08:35:36.110Z,57.93
2022-10-09T08:36:37.971Z,57.30
2022-10-09T08:37:39.935Z,57.83
2022-10-09T08:38:49.133Z,58.81
2022-10-09T08:39:50.803Z,59.86
2022-10-09T08:41:06.219Z,60.94
2022-10-09T08:42:27.151Z,61.88
2022-10-09T08:43:34.616Z,63.47
2022-10-09T08:44:46.744Z,65.12
2022-10-09T08:45:51.505Z,65.60
2022-10-09T08:47:03.867Z,64.90
2022-10-09T08:48:14.379Z,63.33
2022-10-09T08:49:37.502Z,62.08
2022-10-09T08:50:47.482Z,60.56
2022-10-09T08:51:50.091Z,59.20
2022-10-09T08:53:10.173Z,57.89
2022-10-09T08:54:29.622Z,57.27
2022-10-09T08:55:45.504Z,58.02
2022-10-09T08:56:49.678Z,59.06
2022-10-09T08:57:55.199Z,59.82
2022-10-09T08:58:57.141Z,60.81
2022-10-09T08:59:58.747Z,61.74
2022-10-09T09:01:27.944Z,62.12
2022-10-09T09:02:42.186Z,64.26
2022-10-09T09:03:52.966Z,64.96
2022-10-09T09:05:18.238Z,64.17
2022-10-09T09:06:39.886Z,62.38
2022-10-09T09:07:58.974Z,60.87
2022-10-09T09:09:30.433Z,59.05
2022-10-09T09:10:40.606Z,56.95
2022-10-09T09:11:42.121Z,56.84
2022-10-09T09:12:59.864Z,57.28
2022-10-09T09:14:28.482Z,58.09
2022-10-09T09:15:51.963Z,59.18
2022-10-09T09:17:12.508Z,60.01
2022-10-09T09:18:41.980Z,60.88
2022-10-09T09:20:16.634Z,61.87
2022-10-09T09:21:36.317Z,62.48
2022-10-09T09:22:47.597Z,63.82
2022-10-09T09:23:49.431Z,64.41
2022-10-09T09:24:59.089Z,63.91
2022-10-09T09:26:02.139Z,62.36
2022-10-09T09:27:13.754Z,60.94
2022-10-09T09:28:27.998Z,59.79
2022-10-09T09:29:42.563Z,58.05
2022-10-09T09:30:55.754Z,57.24
2022-10-09T09:32:01.088Z,57.75
2022-10-09T09:33:11.570Z,58.42
2022-10-09T09:34:22.343Z,59.40
2022-10-09T09:35:36.743Z,60.13
2022-10-09T09:36:52.165Z,61.20
2022-10-09T09:37:54.131Z,62.14
2022-10-09T09:39:49.900Z,62.64
2022-10-09T09:40:37.702Z,63.89
2022-10-09T09:41:42.408Z,63.93
2022-10-09T09:42:44.323Z,63.05
2022-10-09T09:43:46.081Z,61.84
2022-10-09T09:45:05.103Z,60.76
2022-10-09T09:46:16.248Z,58.89
2022-10-09T09:47:36.101Z,57.37
2022-10-09T09:48:41.271Z,57.20
2022-10-09T09:50:01.148Z,57.83
2022-10-09T09:51:26.939Z,58.93
2022-10-09T09:52:34.646Z,60.10
2022-10-09T09:53:41.229Z,61.49
2022-10-09T09:54:48.688Z,62.03
2022-10-09T09:55:54.458Z,62.84
2022-10-09T09:57:12.898Z,64.37
2022-10-09T09:58:17.905Z,64.05
2022-10-09T09:59:40.988Z,63.06
2022-10-09T10:00:57.337Z,61.77
2022-10-09T10:02:25.211Z,59.83
2022-10-09T10:03:27.944Z,58.11
2022-10-09T10:04:29.950Z,56.81
2022-10-09T10:05:37.506Z,56.74
2022-10-09T10:06:43.966Z,57.56
2022-10-09T10:07:49.866Z,58.48
2022-10-09T10:09:04.818Z,59.16
2022-10-09T10:10:22.473Z,60.16
2022-10-09T10:11:28.649Z,60.89
2022-10-09T10:12:30.391Z,61.74
2022-10-09T10:13:48.983Z,62.61
2022-10-09T10:14:50.869Z,63.86
2022-10-09T10:15:57.874Z,64.01
2022-10-09T10:17:02.127Z,63.01
2022-10-09T10:18:16.015Z,62.09
2022-10-09T10:19:28.789Z,60.82
2022-10-09T10:20:42.142Z,59.42
2022-10-09T10:21:55.512Z,57.36
2022-10-09T10:22:59.313Z,55.97
2022-10-09T10:24:06.554Z,56.14
2022-10-09T10:25:18.168Z,56.56
2022-10-09T10:26:22.736Z,57.48
2022-10-09T10:27:32.040Z,58.40
2022-10-09T10:29:04.621Z,59.28
2022-10-09T10:30:13.931Z,60.29
2022-10-09T10:31:40.236Z,60.83
2022-10-09T10:33:03.023Z,61.57
2022-10-09T10:34:17.091Z,62.18
2022-10-09T10:35:39.568Z,63.03
2022-10-09T10:36:41.899Z,64.12
2022-10-09T10:37:59.715Z,63.55
2022-10-09T10:39:17.456Z,61.33
2022-10-09T10:40:31.787Z,59.80
2022-10-09T10:41:45.150Z,57.51
2022-10-09T10:43:11.356Z,55.56
2022-10-09T10:44:23.289Z,55.36
2022-10-09T10:45:43.946Z,55.99
2022-10-09T10:47:00.050Z,56.78
2022-10-09T10:48:05.127Z,57.60
2022-10-09T10:49:12.000Z,58.06
2022-10-09T10:50:15.788Z,58.73
2022-10-09T10:51:23.147Z,59.31
2022-10-09T10:52:48.122Z,60.00
2022-10-09T10:54:04.690Z,61.32
2022-10-09T10:55:29.277Z,61.95
2022-10-09T10:56:37.726Z,62.01
2022-10-09T10:58:09.841Z,61.80
2022-10-09T10:59:30.182Z,61.58
2022-10-09T11:00:39.764Z,61.77
2022-10-09T11:02:20.933Z,62.09
2022-10-09T11:03:28.313Z,62.21
2022-10-09T11:04:53.881Z,61.44
2022-10-09T11:06:12.546Z,61.17
2022-10-09T11:07:40.054Z,61.54
2022-10-09T11:09:05.843Z,61.07
2022-10-09T11:10:22.430Z,61.04
2022-10-09T11:11:42.903Z,60.19
2022-10-09T11:13:21.681Z,59.98
2022-10-09T11:14:44.901Z,60.09
2022-10-09T11:15:57.719Z,60.28
2022-10-09T11:17:36.445Z,60.19
2022-10-09T11:18:56.170Z,60.09
2022-10-09T11:20:20.815Z,59.27
2022-10-09T11:21:43.265Z,58.61
2022-10-09T11:23:05.702Z,58.24
2022-10-09T11:24:39.792Z,58.14
2022-10-09T11:25:56.191Z,58.45
2022-10-09T11:27:24.544Z,58.69
2022-10-09T11:28:39.197Z,58.78
2022-10-09T11:29:51.999Z,59.14
2022-10-09T11:31:08.415Z,60.08
2022-10-09T11:32:21.957Z,60.80
2022-10-09T11:33:42.172Z,60.43
2022-10-09T11:34:52.913Z,60.78
2022-10-09T11:36:20.409Z,61.05
2022-10-09T11:37:30.270Z,60.75
2022-10-09T11:38:39.390Z,60.68
2022-10-09T11:39:42.212Z,60.55
2022-10-09T11:40:43.937Z,60.55
2022-10-09T11:41:49.742Z,60.34
2022-10-09T11:43:09.881Z,60.11
2022-10-09T11:44:22.969Z,60.62
2022-10-09T11:45:42.885Z,61.28
2022-10-09T11:47:08.921Z,61.70
2022-10-09T11:48:26.671Z,61.46
2022-10-09T11:49:55.772Z,61.64
2022-10-09T11:51:00.107Z,62.02
2022-10-09T11:52:35.765Z,61.17
2022-10-09T11:53:40.271Z,60.33
2022-10-09T11:54:42.273Z,60.15
2022-10-09T11:55:43.982Z,59.87
2022-10-09T11:57:06.117Z,59.75
2022-10-09T11:58:22.786Z,60.00
2022-10-09T11:59:30.265Z,60.13
2022-10-09T12:00:36.004Z,60.70
2022-10-09T12:01:41.224Z,61.02
2022-10-09T12:02:44.309Z,60.41
2022-10-09T12:03:46.150Z,60.17
2022-10-09T12:04:55.840Z,60.08
2022-10-09T12:06:14.574Z,59.96
2022-10-09T12:07:29.549Z,60.05
2022-10-09T12:08:31.725Z,59.55
2022-10-09T12:09:41.891Z,59.76
2022-10-09T12:11:00.664Z,60.30
2022-10-09T12:12:07.571Z,60.59
2022-10-09T12:13:30.896Z,60.43
2022-10-09T12:14:34.275Z,60.31
2022-10-09T12:15:53.266Z,60.60
2022-10-09T12:16:56.610Z,61.30
2022-10-09T12:17:58.311Z,61.99
2022-10-09T12:19:04.342Z,62.40
2022-10-09T12:20:22.968Z,62.31
2022-10-09T12:21:30.751Z,62.06
2022-10-09T12:22:37.399Z,61.65
2022-10-09T12:23:40.363Z,61.06
2022-10-09T12:24:49.178Z,60.81
2022-10-09T12:25:53.680Z,60.36
2022-10-09T12:27:03.057Z,59.81
2022-10-09T12:28:06.706Z,59.07
2022-10-09T12:29:25.264Z,59.15
2022-10-09T12:30:42.677Z,57.83
2022-10-09T12:31:50.443Z,56.53
2022-10-09T12:33:27.585Z,56.70
2022-10-09T12:34:43.548Z,56.07
2022-10-09T12:35:47.855Z,55.59
2022-10-09T12:36:49.592Z,54.04
2022-10-09T12:37:51.611Z,53.36
2022-10-09T12:38:53.358Z,53.92
2022-10-09T12:40:06.466Z,53.78
2022-10-09T12:41:24.929Z,52.94
2022-10-09T12:42:27.229Z,51.92
2022-10-09T12:43:32.398Z,51.27
2022-10-09T12:44:39.690Z,51.69
2022-10-09T12:45:48.229Z,51.26
2022-10-09T12:46:51.319Z,51.45
2022-10-09T12:47:54.551Z,51.52
2022-10-09T12:48:57.998Z,51.50
2022-10-09T12:50:24.171Z,51.16
2022-10-09T12:51:29.551Z,51.67
2022-10-09T12:52:32.308Z,51.41
2022-10-09T12:53:34.071Z,51.16
2022-10-09T12:54:43.315Z,51.07
2022-10-09T12:55:55.957Z,51.66
2022-10-09T12:56:59.811Z,52.04
2022-10-09T12:58:07.866Z,52.51
2022-10-09T12:59:13.670Z,53.21
2022-10-09T13:00:15.827Z,53.69
2022-10-09T13:01:19.317Z,54.30
2022-10-09T13:02:22.154Z,54.15
2022-10-09T13:03:36.188Z,54.08
2022-10-09T13:04:38.233Z,53.99
2022-10-09T13:05:42.530Z,53.77
2022-10-09T13:06:48.007Z,53.47
2022-10-09T13:07:52.520Z,52.90
2022-10-09T13:08:57.945Z,52.68
2022-10-09T13:10:04.662Z,52.95
2022-10-09T13:11:24.233Z,52.60
2022-10-09T13:12:28.925Z,52.54
2022-10-09T13:13:30.676Z,52.71
2022-10-09T13:14:45.213Z,52.67
2022-10-09T13:15:59.634Z,52.60
2022-10-09T13:17:02.448Z,52.68
2022-10-09T13:18:22.503Z,52.84
2022-10-09T13:19:31.701Z,52.82
2022-10-09T13:20:33.414Z,52.83
2022-10-09T13:21:35.619Z,52.73
2022-10-09T13:22:37.745Z,53.07
2022-10-09T13:23:39.412Z,52.66
2022-10-09T13:24:42.222Z,52.67
2022-10-09T13:25:48.704Z,52.53
2022-10-09T13:26:50.349Z,52.45
2022-10-09T13:27:52.552Z,52.39
2022-10-09T13:28:58.516Z,52.53
2022-10-09T13:30:01.470Z,52.71
2022-10-09T13:31:08.423Z,53.13
2022-10-09T13:32:13.626Z,53.59
2022-10-09T13:33:16.970Z,54.08
2022-10-09T13:34:19.321Z,53.65
2022-10-09T13:35:21.410Z,53.00
2022-10-09T13:36:23.054Z,52.75
2022-10-09T13:37:26.887Z,52.56
2022-10-09T13:38:32.663Z,51.88
2022-10-09T13:39:36.346Z,51.64
2022-10-09T13:40:39.273Z,51.55
2022-10-09T13:41:43.470Z,51.17
2022-10-09T13:43:00.888Z,50.35
2022-10-09T13:44:02.610Z,50.18
2022-10-09T13:45:05.366Z,50.34
2022-10-09T13:46:07.263Z,50.31
2022-10-09T13:47:09.057Z,50.47
2022-10-09T13:48:10.718Z,50.84
2022-10-09T13:49:12.374Z,51.25
2022-10-09T13:50:14.385Z,51.74
2022-10-09T13:51:16.034Z,52.31
2022-10-09T13:52:17.705Z,52.81
2022-10-09T13:53:19.366Z,53.19
2022-10-09T13:54:21.285Z,52.94
2022-10-09T13:55:22.898Z,52.77
2022-10-09T13:56:24.668Z,52.71
2022-10-09T13:57:26.284Z,52.60
2022-10-09T13:58:28.121Z,52.80
2022-10-09T13:59:32.007Z,52.78
2022-10-09T14:00:34.237Z,52.55
2022-10-09T14:01:36.115Z,52.30
2022-10-09T14:02:37.759Z,52.19
2022-10-09T14:03:40.402Z,51.82
2022-10-09T14:04:42.109Z,51.88
2022-10-09T14:05:44.802Z,52.14
2022-10-09T14:06:46.412Z,52.14
2022-10-09T14:07:48.681Z,52.31
2022-10-09T14:08:50.539Z,52.64
2022-10-09T14:09:52.222Z,52.80
2022-10-09T14:10:53.886Z,53.22
2022-10-09T14:11:55.505Z,52.90
2022-10-09T14:12:57.420Z,52.13
2022-10-09T14:13:59.904Z,52.10
2022-10-09T14:15:01.810Z,51.74
2022-10-09T14:16:05.847Z,51.84
2022-10-09T14:17:07.450Z,51.81
2022-10-09T14:18:09.224Z,51.66